Main page
METAR-TAF:

METAR-TAF

Airports :

Oban Airport

Oban, Scotland

latitude: 56-27-49N, longitude: 5-24-00W, elevation: 7 m

Current weather observation

The report was made 42 minutes ago, at 08:20 UTC
Wind 5 kt from the Southeast, varying between East and South/Southeast
Temperature 8°C
Humidity 57%
Pressure 1031 hPa
Visibility 10 km or more
no clouds below 1500 m and no cumulonimbus

METAR: EGEO 180820Z 13005KT 100V160 CAVOK 08/00 Q1031

Time: 09:02 (09:02 UTC)

Forecast

The report was made 38 minutes ago, at 08:24 UTC
Forecast valid from 18 at 08 UTC to 18 at 15 UTC
Wind 8 kt from the East
Visibility 10 km or more
no clouds below 1500 m and no cumulonimbus

TAF: EGEO 180824Z 1808/1815 10008KT CAVOK

Weather observations and forecasts of more than 4000 airports (METAR and TAF reports).

The available stations are represented by yellow and red dots on the map.

Hover mouse over dot to see the name of the station.

Then click to see weather observations and forecasts.

To change the map : click on the green buttons with a black cross to zoom in, on the green button with a dash to zoom out, or on the green arrows for adjacent maps.


METAR-TAF: